sensor_id;sensor_type;location;lat;lon;timestamp;temperature;humidity
50548;DHT22;38013;48.810;8.818;2023-03-14T00:01:30;11.60;77.60
50548;DHT22;38013;48.810;8.818;2023-03-14T00:03:57;11.60;77.50
50548;DHT22;38013;48.810;8.818;2023-03-14T00:06:24;11.60;77.50
50548;DHT22;38013;48.810;8.818;2023-03-14T00:08:51;11.60;77.60
50548;DHT22;38013;48.810;8.818;2023-03-14T00:11:20;11.50;77.60
50548;DHT22;38013;48.810;8.818;2023-03-14T00:13:51;11.60;77.70
50548;DHT22;38013;48.810;8.818;2023-03-14T00:16:19;11.60;77.70
50548;DHT22;38013;48.810;8.818;2023-03-14T00:18:46;11.60;77.60
50548;DHT22;38013;48.810;8.818;2023-03-14T00:21:14;11.60;78.10
50548;DHT22;38013;48.810;8.818;2023-03-14T00:23:42;11.60;77.50
50548;DHT22;38013;48.810;8.818;2023-03-14T00:26:14;11.60;77.40
50548;DHT22;38013;48.810;8.818;2023-03-14T00:28:43;11.60;77.40
50548;DHT22;38013;48.810;8.818;2023-03-14T00:31:13;11.60;77.30
50548;DHT22;38013;48.810;8.818;2023-03-14T00:33:42;11.60;77.30
50548;DHT22;38013;48.810;8.818;2023-03-14T00:36:11;11.60;77.40
50548;DHT22;38013;48.810;8.818;2023-03-14T00:38:41;11.60;77.20
50548;DHT22;38013;48.810;8.818;2023-03-14T00:41:14;11.60;77.20
50548;DHT22;38013;48.810;8.818;2023-03-14T00:43:42;11.60;77.30
50548;DHT22;38013;48.810;8.818;2023-03-14T00:46:09;11.60;77.10
50548;DHT22;38013;48.810;8.818;2023-03-14T00:48:37;11.60;77.00
50548;DHT22;38013;48.810;8.818;2023-03-14T00:51:06;11.60;77.10
50548;DHT22;38013;48.810;8.818;2023-03-14T00:53:38;11.70;77.20
50548;DHT22;38013;48.810;8.818;2023-03-14T00:56:08;11.70;77.20
50548;DHT22;38013;48.810;8.818;2023-03-14T00:58:37;11.60;77.20
50548;DHT22;38013;48.810;8.818;2023-03-14T01:01:10;11.60;77.10
50548;DHT22;38013;48.810;8.818;2023-03-14T01:03:41;11.60;77.60
50548;DHT22;38013;48.810;8.818;2023-03-14T01:06:23;11.60;77.20
50548;DHT22;38013;48.810;8.818;2023-03-14T01:08:51;11.70;77.80
50548;DHT22;38013;48.810;8.818;2023-03-14T01:11:25;11.70;77.30
50548;DHT22;38013;48.810;8.818;2023-03-14T01:13:54;11.60;77.60
50548;DHT22;38013;48.810;8.818;2023-03-14T01:16:23;11.60;77.20
50548;DHT22;38013;48.810;8.818;2023-03-14T01:18:52;11.70;77.30
50548;DHT22;38013;48.810;8.818;2023-03-14T01:21:25;11.70;77.30
50548;DHT22;38013;48.810;8.818;2023-03-14T01:23:55;11.70;77.50
50548;DHT22;38013;48.810;8.818;2023-03-14T01:26:25;11.70;77.40
50548;DHT22;38013;48.810;8.818;2023-03-14T01:28:54;11.70;77.30
50548;DHT22;38013;48.810;8.818;2023-03-14T01:31:22;11.70;77.20
50548;DHT22;38013;48.810;8.818;2023-03-14T01:33:50;11.80;77.20
50548;DHT22;38013;48.810;8.818;2023-03-14T01:36:18;11.80;76.90
50548;DHT22;38013;48.810;8.818;2023-03-14T01:38:45;11.80;76.70
50548;DHT22;38013;48.810;8.818;2023-03-14T01:41:18;11.80;76.70
50548;DHT22;38013;48.810;8.818;2023-03-14T01:43:51;11.80;76.60
50548;DHT22;38013;48.810;8.818;2023-03-14T01:46:34;11.80;76.40
50548;DHT22;38013;48.810;8.818;2023-03-14T01:52:03;11.70;76.30
50548;DHT22;38013;48.810;8.818;2023-03-14T01:54:39;11.70;76.60
50548;DHT22;38013;48.810;8.818;2023-03-14T01:57:16;11.70;76.20
50548;DHT22;38013;48.810;8.818;2023-03-14T02:00:06;11.70;76.20
50548;DHT22;38013;48.810;8.818;2023-03-14T02:02:48;11.70;76.10
50548;DHT22;38013;48.810;8.818;2023-03-14T02:05:22;11.70;76.20
50548;DHT22;38013;48.810;8.818;2023-03-14T02:07:58;11.70;76.00
50548;DHT22;38013;48.810;8.818;2023-03-14T02:10:33;11.70;76.00
50548;DHT22;38013;48.810;8.818;2023-03-14T02:13:04;11.60;76.00
50548;DHT22;38013;48.810;8.818;2023-03-14T02:15:39;11.60;76.00
50548;DHT22;38013;48.810;8.818;2023-03-14T02:18:16;11.60;76.50
50548;DHT22;38013;48.810;8.818;2023-03-14T02:23:58;11.60;76.20
50548;DHT22;38013;48.810;8.818;2023-03-14T02:26:42;11.60;75.80
50548;DHT22;38013;48.810;8.818;2023-03-14T02:29:10;11.60;75.80
50548;DHT22;38013;48.810;8.818;2023-03-14T02:31:38;11.50;75.50
50548;DHT22;38013;48.810;8.818;2023-03-14T02:34:06;11.50;75.50
50548;DHT22;38013;48.810;8.818;2023-03-14T02:36:33;11.50;76.00
50548;DHT22;38013;48.810;8.818;2023-03-14T02:39:21;11.50;75.40
50548;DHT22;38013;48.810;8.818;2023-03-14T02:41:51;11.50;75.40
50548;DHT22;38013;48.810;8.818;2023-03-14T02:44:18;11.50;75.10
50548;DHT22;38013;48.810;8.818;2023-03-14T02:46:46;11.50;75.10
50548;DHT22;38013;48.810;8.818;2023-03-14T02:49:14;11.50;75.10
50548;DHT22;38013;48.810;8.818;2023-03-14T02:51:42;11.40;74.90
50548;DHT22;38013;48.810;8.818;2023-03-14T02:54:09;11.50;74.90
50548;DHT22;38013;48.810;8.818;2023-03-14T02:56:36;11.50;74.90
50548;DHT22;38013;48.810;8.818;2023-03-14T02:59:04;11.50;74.80
50548;DHT22;38013;48.810;8.818;2023-03-14T03:01:38;11.40;74.70
50548;DHT22;38013;48.810;8.818;2023-03-14T03:04:05;11.40;74.70
50548;DHT22;38013;48.810;8.818;2023-03-14T03:06:32;11.50;74.70
50548;DHT22;38013;48.810;8.818;2023-03-14T03:08:59;11.50;74.60
50548;DHT22;38013;48.810;8.818;2023-03-14T03:11:26;11.50;74.50
50548;DHT22;38013;48.810;8.818;2023-03-14T03:13:54;11.50;74.50
50548;DHT22;38013;48.810;8.818;2023-03-14T03:16:21;11.50;74.30
50548;DHT22;38013;48.810;8.818;2023-03-14T03:18:50;11.50;74.20
50548;DHT22;38013;48.810;8.818;2023-03-14T03:21:17;11.50;74.10
50548;DHT22;38013;48.810;8.818;2023-03-14T03:23:45;11.50;73.90
50548;DHT22;38013;48.810;8.818;2023-03-14T03:26:12;11.40;73.70
50548;DHT22;38013;48.810;8.818;2023-03-14T03:28:39;11.40;73.60
50548;DHT22;38013;48.810;8.818;2023-03-14T03:31:10;11.40;73.40
50548;DHT22;38013;48.810;8.818;2023-03-14T03:33:38;11.40;73.20
50548;DHT22;38013;48.810;8.818;2023-03-14T03:36:06;11.40;73.10
50548;DHT22;38013;48.810;8.818;2023-03-14T03:38:36;11.40;73.00
50548;DHT22;38013;48.810;8.818;2023-03-14T03:41:05;11.40;73.00
50548;DHT22;38013;48.810;8.818;2023-03-14T03:43:33;11.40;72.90
50548;DHT22;38013;48.810;8.818;2023-03-14T03:46:05;11.30;72.70
50548;DHT22;38013;48.810;8.818;2023-03-14T03:48:33;11.30;72.80
50548;DHT22;38013;48.810;8.818;2023-03-14T03:51:04;11.30;72.70
50548;DHT22;38013;48.810;8.818;2023-03-14T03:53:31;11.30;72.70
50548;DHT22;38013;48.810;8.818;2023-03-14T03:56:04;11.20;72.50
50548;DHT22;38013;48.810;8.818;2023-03-14T03:58:33;11.20;72.40
50548;DHT22;38013;48.810;8.818;2023-03-14T04:01:02;11.20;72.90
50548;DHT22;38013;48.810;8.818;2023-03-14T04:03:29;11.20;72.20
50548;DHT22;38013;48.810;8.818;2023-03-14T04:06:10;11.20;72.10
50548;DHT22;38013;48.810;8.818;2023-03-14T04:08:39;11.20;72.20
50548;DHT22;38013;48.810;8.818;2023-03-14T04:11:19;11.20;71.90
50548;DHT22;38013;48.810;8.818;2023-03-14T04:14:03;11.10;71.90
50548;DHT22;38013;48.810;8.818;2023-03-14T04:16:30;11.10;71.70
50548;DHT22;38013;48.810;8.818;2023-03-14T04:19:09;11.10;71.70
50548;DHT22;38013;48.810;8.818;2023-03-14T04:21:36;11.10;71.60
50548;DHT22;38013;48.810;8.818;2023-03-14T04:24:03;11.10;71.60
50548;DHT22;38013;48.810;8.818;2023-03-14T04:26:33;11.10;71.50
50548;DHT22;38013;48.810;8.818;2023-03-14T04:29:00;11.00;71.40
50548;DHT22;38013;48.810;8.818;2023-03-14T04:31:27;11.00;71.40
50548;DHT22;38013;48.810;8.818;2023-03-14T04:33:54;11.00;71.50
50548;DHT22;38013;48.810;8.818;2023-03-14T04:36:29;10.90;71.40
50548;DHT22;38013;48.810;8.818;2023-03-14T04:39:00;10.90;71.40
50548;DHT22;38013;48.810;8.818;2023-03-14T04:41:29;10.90;71.40
50548;DHT22;38013;48.810;8.818;2023-03-14T04:43:56;10.90;72.10
50548;DHT22;38013;48.810;8.818;2023-03-14T04:46:23;10.90;71.30
50548;DHT22;38013;48.810;8.818;2023-03-14T04:48:50;10.90;71.30
50548;DHT22;38013;48.810;8.818;2023-03-14T04:51:18;10.90;71.30
50548;DHT22;38013;48.810;8.818;2023-03-14T04:53:45;10.80;71.30
50548;DHT22;38013;48.810;8.818;2023-03-14T04:56:13;10.80;71.30
50548;DHT22;38013;48.810;8.818;2023-03-14T04:58:42;10.80;71.30
50548;DHT22;38013;48.810;8.818;2023-03-14T05:01:11;10.80;71.30
50548;DHT22;38013;48.810;8.818;2023-03-14T05:03:57;10.80;71.20
50548;DHT22;38013;48.810;8.818;2023-03-14T05:06:42;10.80;71.30
50548;DHT22;38013;48.810;8.818;2023-03-14T05:09:28;10.80;71.30
50548;DHT22;38013;48.810;8.818;2023-03-14T05:12:22;10.70;71.30
50548;DHT22;38013;48.810;8.818;2023-03-14T05:15:08;10.80;71.30
50548;DHT22;38013;48.810;8.818;2023-03-14T05:17:54;10.80;71.40
50548;DHT22;38013;48.810;8.818;2023-03-14T05:20:31;10.70;71.30
50548;DHT22;38013;48.810;8.818;2023-03-14T05:23:19;10.80;71.40
50548;DHT22;38013;48.810;8.818;2023-03-14T05:26:03;10.70;71.20
50548;DHT22;38013;48.810;8.818;2023-03-14T05:28:40;10.70;71.10
50548;DHT22;38013;48.810;8.818;2023-03-14T05:31:29;10.70;71.30
50548;DHT22;38013;48.810;8.818;2023-03-14T05:34:15;10.70;71.20
50548;DHT22;38013;48.810;8.818;2023-03-14T05:37:14;10.70;71.30
50548;DHT22;38013;48.810;8.818;2023-03-14T05:40:08;10.70;71.30
50548;DHT22;38013;48.810;8.818;2023-03-14T05:42:46;10.70;71.40
50548;DHT22;38013;48.810;8.818;2023-03-14T05:45:35;10.70;71.40
50548;DHT22;38013;48.810;8.818;2023-03-14T05:48:20;10.70;71.50
50548;DHT22;38013;48.810;8.818;2023-03-14T05:50:59;10.70;71.40
50548;DHT22;38013;48.810;8.818;2023-03-14T05:53:43;10.70;71.40
50548;DHT22;38013;48.810;8.818;2023-03-14T05:56:28;10.80;71.40
50548;DHT22;38013;48.810;8.818;2023-03-14T05:59:04;10.80;71.40
50548;DHT22;38013;48.810;8.818;2023-03-14T06:01:37;10.70;71.30
50548;DHT22;38013;48.810;8.818;2023-03-14T06:04:16;10.80;71.30
50548;DHT22;38013;48.810;8.818;2023-03-14T06:06:48;10.80;71.20
50548;DHT22;38013;48.810;8.818;2023-03-14T06:09:16;10.80;71.10
50548;DHT22;38013;48.810;8.818;2023-03-14T06:11:45;10.80;71.00
50548;DHT22;38013;48.810;8.818;2023-03-14T06:14:12;10.80;71.00
50548;DHT22;38013;48.810;8.818;2023-03-14T06:16:43;10.80;70.90
50548;DHT22;38013;48.810;8.818;2023-03-14T06:19:11;10.80;70.80
50548;DHT22;38013;48.810;8.818;2023-03-14T06:21:38;10.80;70.80
50548;DHT22;38013;48.810;8.818;2023-03-14T06:24:06;10.80;70.80
50548;DHT22;38013;48.810;8.818;2023-03-14T06:26:39;10.80;70.80
50548;DHT22;38013;48.810;8.818;2023-03-14T06:29:06;10.80;71.00
50548;DHT22;38013;48.810;8.818;2023-03-14T06:31:34;10.80;70.60
50548;DHT22;38013;48.810;8.818;2023-03-14T06:34:04;10.80;70.60
50548;DHT22;38013;48.810;8.818;2023-03-14T06:36:32;10.90;70.70
50548;DHT22;38013;48.810;8.818;2023-03-14T06:38:58;10.90;70.80
50548;DHT22;38013;48.810;8.818;2023-03-14T06:41:27;10.80;70.80
50548;DHT22;38013;48.810;8.818;2023-03-14T06:43:55;10.90;70.80
50548;DHT22;38013;48.810;8.818;2023-03-14T06:46:23;10.90;70.80
50548;DHT22;38013;48.810;8.818;2023-03-14T06:48:49;10.90;70.90
50548;DHT22;38013;48.810;8.818;2023-03-14T06:51:16;10.90;70.90
50548;DHT22;38013;48.810;8.818;2023-03-14T06:53:43;11.00;71.00
50548;DHT22;38013;48.810;8.818;2023-03-14T06:56:13;11.00;71.10
50548;DHT22;38013;48.810;8.818;2023-03-14T06:58:41;11.00;71.00
50548;DHT22;38013;48.810;8.818;2023-03-14T07:01:25;11.00;71.10
50548;DHT22;38013;48.810;8.818;2023-03-14T07:03:59;11.10;71.20
50548;DHT22;38013;48.810;8.818;2023-03-14T07:06:26;11.20;71.20
50548;DHT22;38013;48.810;8.818;2023-03-14T07:08:53;11.20;70.90
50548;DHT22;38013;48.810;8.818;2023-03-14T07:11:21;11.30;70.90
50548;DHT22;38013;48.810;8.818;2023-03-14T07:13:48;11.30;70.90
50548;DHT22;38013;48.810;8.818;2023-03-14T07:16:15;11.40;71.00
50548;DHT22;38013;48.810;8.818;2023-03-14T07:18:42;11.40;70.70
50548;DHT22;38013;48.810;8.818;2023-03-14T07:21:09;11.50;70.60
50548;DHT22;38013;48.810;8.818;2023-03-14T07:23:37;11.60;70.50
50548;DHT22;38013;48.810;8.818;2023-03-14T07:26:05;11.60;70.50
50548;DHT22;38013;48.810;8.818;2023-03-14T07:28:34;11.70;70.60
50548;DHT22;38013;48.810;8.818;2023-03-14T07:31:09;11.80;70.40
50548;DHT22;38013;48.810;8.818;2023-03-14T07:33:37;11.90;70.00
50548;DHT22;38013;48.810;8.818;2023-03-14T07:36:04;11.90;69.80
50548;DHT22;38013;48.810;8.818;2023-03-14T07:38:31;12.00;69.60
50548;DHT22;38013;48.810;8.818;2023-03-14T07:41:21;12.00;69.30
50548;DHT22;38013;48.810;8.818;2023-03-14T07:44:18;12.10;69.00
50548;DHT22;38013;48.810;8.818;2023-03-14T07:46:45;12.20;68.60
50548;DHT22;38013;48.810;8.818;2023-03-14T07:49:11;12.20;68.60
50548;DHT22;38013;48.810;8.818;2023-03-14T07:51:38;12.20;68.40
50548;DHT22;38013;48.810;8.818;2023-03-14T07:54:05;12.20;68.40
50548;DHT22;38013;48.810;8.818;2023-03-14T07:56:32;12.20;68.40
50548;DHT22;38013;48.810;8.818;2023-03-14T07:58:59;12.30;68.60
50548;DHT22;38013;48.810;8.818;2023-03-14T08:01:26;12.40;68.50
50548;DHT22;38013;48.810;8.818;2023-03-14T08:03:52;12.40;68.40
50548;DHT22;38013;48.810;8.818;2023-03-14T08:06:20;12.40;68.10
50548;DHT22;38013;48.810;8.818;2023-03-14T08:08:47;12.50;68.10
50548;DHT22;38013;48.810;8.818;2023-03-14T08:11:13;12.50;68.10
50548;DHT22;38013;48.810;8.818;2023-03-14T08:13:40;12.60;68.20
50548;DHT22;38013;48.810;8.818;2023-03-14T08:16:08;12.60;69.10
50548;DHT22;38013;48.810;8.818;2023-03-14T08:18:35;12.70;67.70
50548;DHT22;38013;48.810;8.818;2023-03-14T08:21:01;12.80;68.20
50548;DHT22;38013;48.810;8.818;2023-03-14T08:23:28;12.90;67.80
50548;DHT22;38013;48.810;8.818;2023-03-14T08:25:55;13.00;67.80
50548;DHT22;38013;48.810;8.818;2023-03-14T08:28:22;13.10;67.70
50548;DHT22;38013;48.810;8.818;2023-03-14T08:30:49;13.20;67.10
50548;DHT22;38013;48.810;8.818;2023-03-14T08:33:16;13.20;66.70
50548;DHT22;38013;48.810;8.818;2023-03-14T08:35:43;13.30;66.30
50548;DHT22;38013;48.810;8.818;2023-03-14T08:38:10;13.30;66.00
50548;DHT22;38013;48.810;8.818;2023-03-14T08:40:37;13.30;65.70
50548;DHT22;38013;48.810;8.818;2023-03-14T08:43:03;13.30;65.30
50548;DHT22;38013;48.810;8.818;2023-03-14T08:45:30;13.30;65.40
50548;DHT22;38013;48.810;8.818;2023-03-14T08:47:57;13.20;65.60
50548;DHT22;38013;48.810;8.818;2023-03-14T08:50:25;13.20;65.20
50548;DHT22;38013;48.810;8.818;2023-03-14T08:52:51;13.20;65.50
50548;DHT22;38013;48.810;8.818;2023-03-14T08:55:18;13.20;65.80
50548;DHT22;38013;48.810;8.818;2023-03-14T08:57:46;13.20;66.10
50548;DHT22;38013;48.810;8.818;2023-03-14T09:00:13;13.10;65.90
50548;DHT22;38013;48.810;8.818;2023-03-14T09:02:42;13.10;66.30
50548;DHT22;38013;48.810;8.818;2023-03-14T09:05:10;13.10;66.50
50548;DHT22;38013;48.810;8.818;2023-03-14T09:07:37;13.10;66.80
50548;DHT22;38013;48.810;8.818;2023-03-14T09:10:07;13.10;66.80
50548;DHT22;38013;48.810;8.818;2023-03-14T09:12:35;13.00;66.90
50548;DHT22;38013;48.810;8.818;2023-03-14T09:15:03;13.00;66.80
50548;DHT22;38013;48.810;8.818;2023-03-14T09:17:30;13.00;66.80
50548;DHT22;38013;48.810;8.818;2023-03-14T09:19:57;13.00;67.00
50548;DHT22;38013;48.810;8.818;2023-03-14T09:22:26;13.00;67.20
50548;DHT22;38013;48.810;8.818;2023-03-14T09:24:53;13.00;67.40
50548;DHT22;38013;48.810;8.818;2023-03-14T09:27:19;13.00;67.40
50548;DHT22;38013;48.810;8.818;2023-03-14T09:29:46;13.00;67.20
50548;DHT22;38013;48.810;8.818;2023-03-14T09:32:13;13.10;67.20
50548;DHT22;38013;48.810;8.818;2023-03-14T09:34:40;13.10;67.40
50548;DHT22;38013;48.810;8.818;2023-03-14T09:37:07;13.10;67.60
50548;DHT22;38013;48.810;8.818;2023-03-14T09:39:34;13.10;67.60
50548;DHT22;38013;48.810;8.818;2023-03-14T09:42:04;13.10;67.50
50548;DHT22;38013;48.810;8.818;2023-03-14T09:44:35;13.10;67.50
50548;DHT22;38013;48.810;8.818;2023-03-14T09:47:07;13.10;68.00
50548;DHT22;38013;48.810;8.818;2023-03-14T09:49:39;13.20;68.00
50548;DHT22;38013;48.810;8.818;2023-03-14T09:52:24;13.20;68.40
50548;DHT22;38013;48.810;8.818;2023-03-14T09:57:35;13.30;68.90
50548;DHT22;38013;48.810;8.818;2023-03-14T10:00:25;13.40;68.40
50548;DHT22;38013;48.810;8.818;2023-03-14T10:02:56;13.50;68.00
50548;DHT22;38013;48.810;8.818;2023-03-14T10:05:28;13.60;67.70
50548;DHT22;38013;48.810;8.818;2023-03-14T10:07:56;13.70;67.40
50548;DHT22;38013;48.810;8.818;2023-03-14T10:10:25;13.70;67.20
50548;DHT22;38013;48.810;8.818;2023-03-14T10:13:20;13.70;66.40
50548;DHT22;38013;48.810;8.818;2023-03-14T10:16:08;13.70;66.40
50548;DHT22;38013;48.810;8.818;2023-03-14T10:18:36;13.70;66.70
50548;DHT22;38013;48.810;8.818;2023-03-14T10:21:06;13.70;66.60
50548;DHT22;38013;48.810;8.818;2023-03-14T10:23:43;13.60;66.70
50548;DHT22;38013;48.810;8.818;2023-03-14T10:26:19;13.60;66.80
50548;DHT22;38013;48.810;8.818;2023-03-14T10:29:02;13.60;66.90
50548;DHT22;38013;48.810;8.818;2023-03-14T10:31:50;13.50;67.20
50548;DHT22;38013;48.810;8.818;2023-03-14T10:34:28;13.50;67.20
50548;DHT22;38013;48.810;8.818;2023-03-14T10:37:21;13.50;66.70
50548;DHT22;38013;48.810;8.818;2023-03-14T10:39:55;13.40;67.30
50548;DHT22;38013;48.810;8.818;2023-03-14T10:42:27;13.40;66.80
50548;DHT22;38013;48.810;8.818;2023-03-14T10:44:58;13.30;67.00
50548;DHT22;38013;48.810;8.818;2023-03-14T10:47:28;13.30;67.10
50548;DHT22;38013;48.810;8.818;2023-03-14T10:49:56;13.30;67.50
50548;DHT22;38013;48.810;8.818;2023-03-14T10:52:25;13.30;67.90
50548;DHT22;38013;48.810;8.818;2023-03-14T10:55:14;13.20;68.20
50548;DHT22;38013;48.810;8.818;2023-03-14T10:57:42;13.20;68.20
50548;DHT22;38013;48.810;8.818;2023-03-14T11:00:23;13.20;68.50
50548;DHT22;38013;48.810;8.818;2023-03-14T11:03:10;13.20;68.70
50548;DHT22;38013;48.810;8.818;2023-03-14T11:05:49;13.20;68.60
50548;DHT22;38013;48.810;8.818;2023-03-14T11:13:54;13.00;68.90
50548;DHT22;38013;48.810;8.818;2023-03-14T11:22:39;12.90;69.70
50548;DHT22;38013;48.810;8.818;2023-03-14T11:25:32;12.90;69.00
50548;DHT22;38013;48.810;8.818;2023-03-14T11:28:36;12.80;68.40
50548;DHT22;38013;48.810;8.818;2023-03-14T11:31:20;12.80;69.30
50548;DHT22;38013;48.810;8.818;2023-03-14T11:34:07;12.90;68.40
50548;DHT22;38013;48.810;8.818;2023-03-14T11:39:39;12.80;68.70
50548;DHT22;38013;48.810;8.818;2023-03-14T11:42:12;12.70;68.40
50548;DHT22;38013;48.810;8.818;2023-03-14T11:44:46;12.70;68.60
50548;DHT22;38013;48.810;8.818;2023-03-14T11:50:22;12.60;69.20
50548;DHT22;38013;48.810;8.818;2023-03-14T11:55:33;12.50;69.30
50548;DHT22;38013;48.810;8.818;2023-03-14T11:58:15;12.50;69.80
50548;DHT22;38013;48.810;8.818;2023-03-14T12:00:48;12.50;70.40
50548;DHT22;38013;48.810;8.818;2023-03-14T12:03:24;12.40;70.10
50548;DHT22;38013;48.810;8.818;2023-03-14T12:06:13;12.40;70.00
50548;DHT22;38013;48.810;8.818;2023-03-14T12:08:52;12.30;69.60
50548;DHT22;38013;48.810;8.818;2023-03-14T12:11:56;12.20;69.50
50548;DHT22;38013;48.810;8.818;2023-03-14T12:14:30;12.00;69.00
50548;DHT22;38013;48.810;8.818;2023-03-14T12:20:01;11.80;67.80
50548;DHT22;38013;48.810;8.818;2023-03-14T12:22:42;11.70;67.10
50548;DHT22;38013;48.810;8.818;2023-03-14T12:25:28;11.60;65.30
50548;DHT22;38013;48.810;8.818;2023-03-14T12:30:30;11.50;67.10
50548;DHT22;38013;48.810;8.818;2023-03-14T12:33:11;11.50;67.00
50548;DHT22;38013;48.810;8.818;2023-03-14T12:35:53;11.50;64.90
50548;DHT22;38013;48.810;8.818;2023-03-14T12:41:48;11.60;64.10
50548;DHT22;38013;48.810;8.818;2023-03-14T12:46:57;11.70;63.40
50548;DHT22;38013;48.810;8.818;2023-03-14T12:49:49;11.80;63.30
50548;DHT22;38013;48.810;8.818;2023-03-14T12:52:32;11.80;62.90
50548;DHT22;38013;48.810;8.818;2023-03-14T12:55:10;11.90;62.10
50548;DHT22;38013;48.810;8.818;2023-03-14T13:00:54;12.00;61.10
50548;DHT22;38013;48.810;8.818;2023-03-14T13:03:26;12.00;59.70
50548;DHT22;38013;48.810;8.818;2023-03-14T13:06:04;11.90;58.70
50548;DHT22;38013;48.810;8.818;2023-03-14T13:08:43;11.90;58.20
50548;DHT22;38013;48.810;8.818;2023-03-14T13:11:19;11.80;57.60
50548;DHT22;38013;48.810;8.818;2023-03-14T13:13:49;11.70;56.90
50548;DHT22;38013;48.810;8.818;2023-03-14T13:16:20;11.50;57.00
50548;DHT22;38013;48.810;8.818;2023-03-14T13:18:50;11.50;58.10
50548;DHT22;38013;48.810;8.818;2023-03-14T13:21:27;11.40;58.30
50548;DHT22;38013;48.810;8.818;2023-03-14T13:26:40;11.30;57.90
50548;DHT22;38013;48.810;8.818;2023-03-14T13:29:32;11.20;57.10
50548;DHT22;38013;48.810;8.818;2023-03-14T13:32:01;11.20;57.60
50548;DHT22;38013;48.810;8.818;2023-03-14T13:34:40;11.10;57.90
50548;DHT22;38013;48.810;8.818;2023-03-14T13:37:17;11.10;57.10
50548;DHT22;38013;48.810;8.818;2023-03-14T13:39:50;11.00;56.00
50548;DHT22;38013;48.810;8.818;2023-03-14T13:42:19;11.00;56.30
50548;DHT22;38013;48.810;8.818;2023-03-14T13:44:46;10.90;56.10
50548;DHT22;38013;48.810;8.818;2023-03-14T13:47:16;11.00;55.40
50548;DHT22;38013;48.810;8.818;2023-03-14T13:49:45;11.00;55.40
50548;DHT22;38013;48.810;8.818;2023-03-14T13:52:30;11.10;56.30
50548;DHT22;38013;48.810;8.818;2023-03-14T13:55:00;11.20;54.80
50548;DHT22;38013;48.810;8.818;2023-03-14T13:57:27;11.30;54.90
50548;DHT22;38013;48.810;8.818;2023-03-14T14:00:05;11.40;54.10
50548;DHT22;38013;48.810;8.818;2023-03-14T14:02:38;11.40;51.50
50548;DHT22;38013;48.810;8.818;2023-03-14T14:05:05;11.50;51.50
50548;DHT22;38013;48.810;8.818;2023-03-14T14:07:33;11.40;51.60
50548;DHT22;38013;48.810;8.818;2023-03-14T14:10:00;11.40;51.70
50548;DHT22;38013;48.810;8.818;2023-03-14T14:12:39;11.30;51.20
50548;DHT22;38013;48.810;8.818;2023-03-14T14:15:18;11.20;50.80
50548;DHT22;38013;48.810;8.818;2023-03-14T14:17:51;11.10;52.10
50548;DHT22;38013;48.810;8.818;2023-03-14T14:20:23;11.00;52.10
50548;DHT22;38013;48.810;8.818;2023-03-14T14:23:36;11.00;52.60
50548;DHT22;38013;48.810;8.818;2023-03-14T14:25:58;10.90;52.90
50548;DHT22;38013;48.810;8.818;2023-03-14T14:28:29;10.90;52.90
50548;DHT22;38013;48.810;8.818;2023-03-14T14:33:43;10.80;52.60
50548;DHT22;38013;48.810;8.818;2023-03-14T14:36:19;10.70;51.80
50548;DHT22;38013;48.810;8.818;2023-03-14T14:38:58;10.60;51.90
50548;DHT22;38013;48.810;8.818;2023-03-14T14:41:39;10.60;51.00
50548;DHT22;38013;48.810;8.818;2023-03-14T14:44:06;10.50;52.50
50548;DHT22;38013;48.810;8.818;2023-03-14T14:46:35;10.40;52.70
50548;DHT22;38013;48.810;8.818;2023-03-14T14:49:10;10.40;52.90
50548;DHT22;38013;48.810;8.818;2023-03-14T14:51:45;10.40;53.10
50548;DHT22;38013;48.810;8.818;2023-03-14T14:54:17;10.30;52.20
50548;DHT22;38013;48.810;8.818;2023-03-14T14:56:50;10.30;52.90
50548;DHT22;38013;48.810;8.818;2023-03-14T14:59:25;10.30;52.50
50548;DHT22;38013;48.810;8.818;2023-03-14T15:01:57;10.30;52.80
50548;DHT22;38013;48.810;8.818;2023-03-14T15:04:25;10.30;53.60
50548;DHT22;38013;48.810;8.818;2023-03-14T15:06:53;10.30;54.20
50548;DHT22;38013;48.810;8.818;2023-03-14T15:09:20;10.50;54.80
50548;DHT22;38013;48.810;8.818;2023-03-14T15:11:47;10.70;54.90
50548;DHT22;38013;48.810;8.818;2023-03-14T15:14:14;11.00;55.90
50548;DHT22;38013;48.810;8.818;2023-03-14T15:16:41;11.30;54.60
50548;DHT22;38013;48.810;8.818;2023-03-14T15:19:16;11.60;54.80
50548;DHT22;38013;48.810;8.818;2023-03-14T15:21:52;12.00;53.40
50548;DHT22;38013;48.810;8.818;2023-03-14T15:24:19;12.30;52.70
50548;DHT22;38013;48.810;8.818;2023-03-14T15:26:46;12.50;51.90
50548;DHT22;38013;48.810;8.818;2023-03-14T15:29:13;12.60;51.30
50548;DHT22;38013;48.810;8.818;2023-03-14T15:31:40;12.80;50.50
50548;DHT22;38013;48.810;8.818;2023-03-14T15:34:10;13.00;50.70
50548;DHT22;38013;48.810;8.818;2023-03-14T15:36:38;13.10;51.30
50548;DHT22;38013;48.810;8.818;2023-03-14T15:39:06;13.30;51.70
50548;DHT22;38013;48.810;8.818;2023-03-14T15:41:33;13.60;50.90
50548;DHT22;38013;48.810;8.818;2023-03-14T15:44:00;13.80;51.00
50548;DHT22;38013;48.810;8.818;2023-03-14T15:46:27;14.10;50.20
50548;DHT22;38013;48.810;8.818;2023-03-14T15:48:56;14.30;48.50
50548;DHT22;38013;48.810;8.818;2023-03-14T15:51:23;14.50;48.80
50548;DHT22;38013;48.810;8.818;2023-03-14T15:53:50;14.70;48.70
50548;DHT22;38013;48.810;8.818;2023-03-14T15:56:19;14.90;48.60
50548;DHT22;38013;48.810;8.818;2023-03-14T15:58:46;14.90;47.40
50548;DHT22;38013;48.810;8.818;2023-03-14T16:01:14;14.80;46.40
50548;DHT22;38013;48.810;8.818;2023-03-14T16:03:45;14.60;45.80
50548;DHT22;38013;48.810;8.818;2023-03-14T16:06:12;14.30;45.70
50548;DHT22;38013;48.810;8.818;2023-03-14T16:08:40;13.90;46.00
50548;DHT22;38013;48.810;8.818;2023-03-14T16:11:09;13.50;46.50
50548;DHT22;38013;48.810;8.818;2023-03-14T16:13:37;13.10;46.80
50548;DHT22;38013;48.810;8.818;2023-03-14T16:16:05;12.80;47.70
50548;DHT22;38013;48.810;8.818;2023-03-14T16:18:34;12.60;49.20
50548;DHT22;38013;48.810;8.818;2023-03-14T16:21:03;12.40;49.10
50548;DHT22;38013;48.810;8.818;2023-03-14T16:23:34;12.20;48.80
50548;DHT22;38013;48.810;8.818;2023-03-14T16:26:06;12.10;49.30
50548;DHT22;38013;48.810;8.818;2023-03-14T16:28:34;11.90;49.50
50548;DHT22;38013;48.810;8.818;2023-03-14T16:31:04;11.80;50.20
50548;DHT22;38013;48.810;8.818;2023-03-14T16:33:33;11.70;50.80
50548;DHT22;38013;48.810;8.818;2023-03-14T16:36:01;11.60;51.00
50548;DHT22;38013;48.810;8.818;2023-03-14T16:38:32;11.60;51.50
50548;DHT22;38013;48.810;8.818;2023-03-14T16:41:04;11.70;51.40
50548;DHT22;38013;48.810;8.818;2023-03-14T16:43:33;11.70;51.00
50548;DHT22;38013;48.810;8.818;2023-03-14T16:46:03;11.70;51.30
50548;DHT22;38013;48.810;8.818;2023-03-14T16:48:31;11.60;51.00
50548;DHT22;38013;48.810;8.818;2023-03-14T16:50:58;11.50;50.80